CYLW/YLW METAR and TAF weather

Enter ICAO airport designator
Station Type Date Time Source
CYLW METAR 2018/04/27 01:00 UTC NOAA

CYLW 270100Z AUTO VRB02KT 9SM CLR 23/04 A2999 RMK SLP159 DENSITY ALT 2500FT


Station Type Date Time Source
CYLW Decoded METAR 2018/04/27 01:00 UTC NOAA

Kelowna Airport, Canada (CYLW) 49-58N 119-23W 430M
Apr 26, 2018 - 09:00 PM EDT / 2018.04.27 0100 UTC
Wind: Variable at 2 MPH (2 KT):0
Visibility: 9 mile(s):0
Sky conditions: clear
Temperature: 73 F (23 C)
Dew Point: 39 F (4 C)
Relative Humidity: 28%
Pressure (altimeter): 29.99 in. Hg (1015 hPa)
ob: CYLW 270100Z AUTO VRB02KT 9SM CLR 23/04 A2999 RMK SLP159 DENSITY ALT 2500FT
cycle: 1

Station Type Date Time Source
CYLW TAF 2018/04/27 01:39 UTC NOAA

TAF CYLW 270038Z 2701/2713 VRB03KT P6SM SKC
RMK FCST BASED ON AUTO OBS. NXT FCST BY 270700Z


Example: see airport list